Cedar Point, Kansas
Current Conditions -  °F | °C
As of 10:55 AM on Thursday 23 Oct 2014 (Local Time) from KEWK Reporting Station
Overcast Overcast  
Wind Chill: 63°   Ceiling: 2100
Heat Index: 63°   Visibility: 10mi
Dew Point: 55°   Wind: 7mph
Humidity: 77%   Direction: 190°S
Pressure: 30.14"   Gusts: NA
Location:  38.26°N, 96.82°W
Report Text: KEWK 231555Z AUTO 19006KT 10SM OVC021 17/13 A3014 RMK AO1
Loading
Personal Weather Stations






























Interactive Weather Map New forecast layout! Learn more

10-Day Weather Forecast

Advertisements
Track Severe Weather on mobile